createdAt,value
2018-06-03T00:00:22.608Z,15.50
2018-06-03T00:02:50.549Z,15.30
2018-06-03T00:05:18.072Z,15.10
2018-06-03T00:07:45.622Z,14.90
2018-06-03T00:10:13.139Z,14.90
2018-06-03T00:12:40.687Z,14.80
2018-06-03T00:15:08.197Z,15.00
2018-06-03T00:17:35.725Z,15.00
2018-06-03T00:20:03.245Z,15.00
2018-06-03T00:22:30.788Z,15.10
2018-06-03T00:24:58.312Z,15.00
2018-06-03T00:27:25.856Z,15.00
2018-06-03T00:29:53.371Z,15.00
2018-06-03T00:32:20.945Z,15.00
2018-06-03T00:34:48.445Z,15.00
2018-06-03T00:37:15.982Z,14.90
2018-06-03T00:39:43.493Z,15.00
2018-06-03T00:42:11.020Z,15.00
2018-06-03T00:44:38.521Z,15.00
2018-06-03T00:47:06.456Z,15.00
2018-06-03T00:49:33.964Z,15.00
2018-06-03T00:52:01.501Z,15.00
2018-06-03T00:54:29.408Z,15.10
2018-06-03T00:57:08.846Z,15.10
2018-06-03T01:00:05.595Z,15.10
2018-06-03T01:02:34.029Z,14.80
2018-06-03T01:05:02.436Z,14.80
2018-06-03T01:07:30.849Z,14.50
2018-06-03T01:09:59.282Z,14.50
2018-06-03T01:12:27.737Z,14.30
2018-06-03T01:14:56.149Z,14.30
2018-06-03T01:17:24.549Z,14.40
2018-06-03T01:19:52.993Z,14.50
2018-06-03T01:22:21.404Z,14.50
2018-06-03T01:24:49.824Z,14.50
2018-06-03T01:27:18.319Z,14.50
2018-06-03T01:29:46.797Z,14.50
2018-06-03T01:32:15.197Z,14.40
2018-06-03T01:34:43.651Z,14.30
2018-06-03T01:37:12.116Z,14.20
2018-06-03T01:39:40.537Z,14.30
2018-06-03T01:42:08.942Z,14.30
2018-06-03T01:44:37.435Z,14.40
2018-06-03T01:47:05.850Z,14.40
2018-06-03T01:49:34.284Z,14.40
2018-06-03T01:54:30.840Z,14.40
2018-06-03T01:56:59.298Z,14.40
2018-06-03T01:59:27.720Z,14.40
2018-06-03T02:01:56.192Z,14.40
2018-06-03T02:04:24.609Z,14.40
2018-06-03T02:06:53.022Z,14.30
2018-06-03T02:09:21.550Z,14.20
2018-06-03T02:11:49.949Z,14.10
2018-06-03T02:14:18.358Z,14.10
2018-06-03T02:16:46.768Z,14.10
2018-06-03T02:19:15.175Z,14.10
2018-06-03T02:21:43.607Z,14.00
2018-06-03T02:24:12.016Z,14.00
2018-06-03T02:26:40.525Z,14.00
2018-06-03T02:29:08.946Z,14.00
2018-06-03T02:31:37.416Z,14.00
2018-06-03T02:34:05.833Z,14.00
2018-06-03T02:36:34.289Z,14.00
2018-06-03T02:39:02.794Z,14.10
2018-06-03T02:41:31.241Z,14.10
2018-06-03T02:43:59.703Z,14.10
2018-06-03T02:46:28.146Z,14.00
2018-06-03T02:48:56.551Z,13.90
2018-06-03T02:51:24.993Z,13.80
2018-06-03T02:56:21.688Z,13.60
2018-06-03T02:58:50.112Z,13.50
2018-06-03T03:01:18.561Z,13.40
2018-06-03T03:03:46.966Z,13.40
2018-06-03T03:06:15.402Z,13.30
2018-06-03T03:08:43.819Z,13.30
2018-06-03T03:11:12.243Z,13.40
2018-06-03T03:13:40.682Z,13.40
2018-06-03T03:16:09.124Z,13.40
2018-06-03T03:18:37.517Z,13.50
2018-06-03T03:21:06.066Z,13.60
2018-06-03T03:23:34.471Z,13.60
2018-06-03T03:26:02.885Z,13.60
2018-06-03T03:28:31.322Z,13.60
2018-06-03T03:30:59.726Z,13.60
2018-06-03T03:33:28.157Z,13.60
2018-06-03T03:35:56.557Z,13.50
2018-06-03T03:38:24.981Z,13.50
2018-06-03T03:40:53.377Z,13.50
2018-06-03T03:43:21.808Z,13.60
2018-06-03T03:45:50.218Z,13.50
2018-06-03T03:48:18.645Z,13.50
2018-06-03T03:50:47.062Z,13.50
2018-06-03T03:53:15.550Z,13.50
2018-06-03T03:55:43.986Z,13.50
2018-06-03T03:58:12.445Z,13.60
2018-06-03T04:00:40.925Z,13.60
2018-06-03T04:03:09.567Z,13.70
2018-06-03T04:05:37.961Z,13.70
2018-06-03T04:08:06.389Z,13.80
2018-06-03T04:10:34.798Z,13.80
2018-06-03T04:13:03.245Z,13.90
2018-06-03T04:15:31.647Z,14.00
2018-06-03T04:18:00.097Z,14.10
2018-06-03T04:22:56.640Z,14.20
2018-06-03T04:25:25.046Z,14.30
2018-06-03T04:27:53.471Z,14.40
2018-06-03T04:30:22.001Z,14.30
2018-06-03T04:32:50.470Z,14.30
2018-06-03T04:35:18.902Z,14.30
2018-06-03T04:37:47.338Z,14.30
2018-06-03T04:40:15.749Z,14.30
2018-06-03T04:42:44.209Z,14.40
2018-06-03T04:45:12.610Z,14.50
2018-06-03T04:47:41.040Z,14.70
2018-06-03T04:50:09.453Z,14.90
2018-06-03T04:52:37.885Z,15.00
2018-06-03T04:55:06.347Z,15.10
2018-06-03T04:57:34.774Z,15.20
2018-06-03T05:00:03.399Z,15.20
2018-06-03T05:02:31.815Z,15.30
2018-06-03T05:05:00.272Z,15.40
2018-06-03T05:07:28.701Z,15.60
2018-06-03T05:09:57.142Z,15.70
2018-06-03T05:12:25.557Z,15.90
2018-06-03T05:14:54.003Z,16.00
2018-06-03T05:17:22.409Z,16.00
2018-06-03T05:19:50.858Z,16.00
2018-06-03T05:22:19.277Z,16.00
2018-06-03T05:24:47.730Z,16.10
2018-06-03T05:27:16.141Z,16.20
2018-06-03T05:29:44.617Z,16.20
2018-06-03T05:32:13.027Z,16.50
2018-06-03T05:34:41.609Z,16.70
2018-06-03T05:37:09.992Z,16.70
2018-06-03T05:39:38.409Z,16.70
2018-06-03T05:42:06.808Z,16.80
2018-06-03T05:44:35.465Z,16.90
2018-06-03T05:47:04.006Z,17.00
2018-06-03T05:49:32.437Z,17.10
2018-06-03T05:52:00.860Z,17.30
2018-06-03T05:54:29.329Z,17.40
2018-06-03T05:56:57.721Z,17.70
2018-06-03T05:59:26.153Z,18.20
2018-06-03T06:01:54.558Z,19.20
2018-06-03T06:04:22.993Z,19.30
2018-06-03T06:06:51.425Z,19.70
2018-06-03T06:09:19.820Z,20.00
2018-06-03T06:11:48.249Z,20.30
2018-06-03T06:14:16.653Z,20.80
2018-06-03T06:16:45.077Z,21.30
2018-06-03T06:19:13.509Z,21.80
2018-06-03T06:21:42.040Z,22.40
2018-06-03T06:24:10.838Z,23.40
2018-06-03T06:26:39.264Z,24.10
2018-06-03T06:31:35.941Z,26.00
2018-06-03T06:34:04.420Z,27.00
2018-06-03T06:36:32.842Z,27.70
2018-06-03T06:39:01.252Z,28.10
2018-06-03T06:45:01.022Z,28.90
2018-06-03T06:47:29.430Z,29.80
2018-06-03T06:49:57.882Z,29.50
2018-06-03T06:52:26.295Z,29.40
2018-06-03T06:54:54.725Z,29.10
2018-06-03T06:57:23.357Z,29.60
2018-06-03T06:59:51.682Z,30.70
2018-06-03T07:02:20.129Z,31.80
2018-06-03T07:04:48.571Z,32.60
2018-06-03T07:07:17.009Z,32.30
2018-06-03T07:09:45.429Z,31.50
2018-06-03T07:12:13.883Z,31.90
2018-06-03T07:14:42.353Z,33.20
2018-06-03T07:17:10.808Z,31.50
2018-06-03T07:19:39.286Z,32.70
2018-06-03T07:22:07.712Z,33.40
2018-06-03T07:24:36.185Z,33.70
2018-06-03T07:27:04.737Z,34.30
2018-06-03T07:29:33.146Z,35.30
2018-06-03T07:32:01.664Z,35.10
2018-06-03T07:34:30.047Z,35.00
2018-06-03T07:36:58.520Z,35.00
2018-06-03T07:39:26.917Z,34.80
2018-06-03T07:41:55.374Z,34.90
2018-06-03T07:44:23.848Z,35.10
2018-06-03T07:46:52.283Z,35.60
2018-06-03T07:49:20.686Z,36.70
2018-06-03T07:51:49.115Z,36.80
2018-06-03T07:54:17.537Z,36.30
2018-06-03T07:56:45.992Z,36.60
2018-06-03T07:59:14.378Z,36.70
2018-06-03T08:01:42.845Z,36.60
2018-06-03T08:04:11.270Z,35.50
2018-06-03T08:06:39.730Z,36.10
2018-06-03T08:09:08.380Z,36.40
2018-06-03T08:11:36.817Z,37.80
2018-06-03T08:16:33.342Z,37.00
2018-06-03T08:19:01.745Z,37.30
2018-06-03T08:21:30.169Z,38.20
2018-06-03T08:23:58.555Z,38.40
2018-06-03T08:26:26.985Z,37.70
2018-06-03T08:28:55.405Z,38.20
2018-06-03T08:31:23.882Z,38.90
2018-06-03T08:33:52.299Z,39.10
2018-06-03T08:36:20.721Z,38.70
2018-06-03T08:38:49.176Z,37.80
2018-06-03T08:41:17.582Z,38.10
2018-06-03T08:43:46.018Z,37.90
2018-06-03T08:46:14.399Z,38.00
2018-06-03T08:48:42.825Z,38.10
2018-06-03T08:51:11.234Z,35.80
2018-06-03T08:56:07.831Z,32.60
2018-06-03T08:58:36.254Z,32.70
2018-06-03T09:01:04.684Z,34.90
2018-06-03T09:03:33.125Z,35.50
2018-06-03T09:06:01.560Z,35.40
2018-06-03T09:08:29.996Z,34.70
2018-06-03T09:10:58.426Z,35.10
2018-06-03T09:13:26.872Z,35.20
2018-06-03T09:15:55.326Z,34.10
2018-06-03T09:18:23.945Z,34.20
2018-06-03T09:20:52.335Z,34.90
2018-06-03T09:23:20.777Z,34.40
2018-06-03T09:25:49.209Z,33.10
2018-06-03T09:28:17.661Z,33.10
2018-06-03T09:30:46.118Z,34.00
2018-06-03T09:33:14.550Z,33.40
2018-06-03T09:35:42.934Z,32.60
2018-06-03T09:38:11.337Z,32.50
2018-06-03T09:40:39.764Z,33.30
2018-06-03T09:43:08.183Z,33.40
2018-06-03T09:45:36.805Z,34.20
2018-06-03T09:48:05.378Z,36.30
2018-06-03T09:50:33.769Z,36.50
2018-06-03T09:53:02.265Z,37.10
2018-06-03T09:55:30.652Z,37.50
2018-06-03T09:57:59.063Z,36.80
2018-06-03T10:00:28.500Z,35.80
2018-06-03T10:02:57.051Z,35.10
2018-06-03T10:05:25.473Z,34.20
2018-06-03T10:07:53.879Z,34.00
2018-06-03T10:10:22.305Z,34.90
2018-06-03T10:12:50.885Z,32.60
2018-06-03T10:15:19.327Z,31.70
2018-06-03T10:17:47.899Z,30.40
2018-06-03T10:20:16.329Z,28.50
2018-06-03T10:22:44.789Z,27.40
2018-06-03T10:25:13.237Z,26.80
2018-06-03T10:27:41.673Z,26.80
2018-06-03T10:30:10.419Z,28.10
2018-06-03T10:32:39.154Z,30.10
2018-06-03T10:35:07.637Z,31.60
2018-06-03T10:37:36.072Z,32.10
2018-06-03T10:40:04.653Z,33.60
2018-06-03T10:42:33.060Z,34.90
2018-06-03T10:45:01.548Z,36.00
2018-06-03T10:47:30.073Z,36.20
2018-06-03T10:49:58.525Z,33.80
2018-06-03T10:52:27.114Z,32.50
2018-06-03T10:54:55.624Z,30.90
2018-06-03T10:57:24.059Z,29.40
2018-06-03T10:59:52.527Z,28.70
2018-06-03T11:02:20.970Z,28.40
2018-06-03T11:07:17.517Z,27.40
2018-06-03T11:09:45.961Z,27.20
2018-06-03T11:12:14.353Z,27.10
2018-06-03T11:14:42.891Z,27.00
2018-06-03T11:17:11.295Z,26.70
2018-06-03T11:19:39.749Z,26.60
2018-06-03T11:22:08.322Z,26.50
2018-06-03T11:24:36.763Z,26.60
2018-06-03T11:27:05.227Z,26.80
2018-06-03T11:29:33.646Z,26.90
2018-06-03T11:32:02.109Z,27.00
2018-06-03T11:34:30.663Z,27.00
2018-06-03T11:36:59.089Z,27.30
2018-06-03T11:39:27.898Z,27.30
2018-06-03T11:41:56.333Z,27.10
2018-06-03T11:44:24.729Z,26.80
2018-06-03T11:46:53.178Z,26.80
2018-06-03T11:49:21.580Z,26.60
2018-06-03T11:51:50.073Z,26.50
2018-06-03T11:54:18.513Z,26.50
2018-06-03T11:56:58.042Z,26.50
2018-06-03T11:59:39.489Z,26.80
2018-06-03T12:02:08.256Z,26.80
2018-06-03T12:04:36.795Z,26.70
2018-06-03T12:07:05.413Z,26.60
2018-06-03T12:09:33.813Z,26.60
2018-06-03T12:12:02.271Z,26.60
2018-06-03T12:14:30.713Z,26.70
2018-06-03T12:16:59.176Z,26.70
2018-06-03T12:19:27.589Z,26.80
2018-06-03T12:21:56.062Z,26.80
2018-06-03T12:24:24.650Z,26.70
2018-06-03T12:26:53.081Z,26.50
2018-06-03T12:29:21.496Z,26.50
2018-06-03T12:31:49.990Z,26.60
2018-06-03T12:34:18.402Z,26.70
2018-06-03T12:36:47.001Z,26.80
2018-06-03T12:39:15.405Z,26.70
2018-06-03T12:41:43.911Z,26.70
2018-06-03T12:44:12.311Z,26.80
2018-06-03T12:46:40.747Z,26.80
2018-06-03T12:49:09.153Z,26.90
2018-06-03T12:51:37.597Z,26.80
2018-06-03T12:54:06.013Z,26.60
2018-06-03T12:56:34.476Z,26.10
2018-06-03T12:59:02.926Z,26.00
2018-06-03T13:01:31.333Z,26.00
2018-06-03T13:03:59.766Z,26.10
2018-06-03T13:06:28.265Z,26.10
2018-06-03T13:08:56.637Z,26.30
2018-06-03T13:11:25.077Z,26.30
2018-06-03T13:13:53.557Z,26.40
2018-06-03T13:16:21.967Z,26.40
2018-06-03T13:18:50.409Z,26.70
2018-06-03T13:21:18.831Z,26.70
2018-06-03T13:23:47.257Z,26.60
2018-06-03T13:26:15.723Z,26.50
2018-06-03T13:28:44.237Z,26.50
2018-06-03T13:31:12.721Z,26.50
2018-06-03T13:33:41.137Z,26.40
2018-06-03T13:36:09.553Z,26.20
2018-06-03T13:38:37.998Z,26.20
2018-06-03T13:41:06.449Z,26.20
2018-06-03T13:43:34.905Z,26.20
2018-06-03T13:46:03.361Z,26.20
2018-06-03T13:48:31.826Z,26.10
2018-06-03T13:51:00.281Z,26.20
2018-06-03T13:53:28.766Z,26.20
2018-06-03T13:55:57.209Z,26.20
2018-06-03T13:58:25.660Z,26.30
2018-06-03T14:00:54.072Z,26.20
2018-06-03T14:03:22.501Z,26.30
2018-06-03T14:05:50.906Z,26.40
2018-06-03T14:08:19.335Z,26.60
2018-06-03T14:10:47.828Z,27.10
2018-06-03T14:13:16.326Z,27.00
2018-06-03T14:15:44.852Z,27.00
2018-06-03T14:18:13.325Z,26.90
2018-06-03T14:20:41.717Z,26.80
2018-06-03T14:23:10.133Z,26.80
2018-06-03T14:25:38.579Z,26.70
2018-06-03T14:28:06.999Z,26.60
2018-06-03T14:30:35.433Z,26.50
2018-06-03T14:33:03.883Z,26.20
2018-06-03T14:35:32.306Z,26.10
2018-06-03T14:38:00.771Z,26.00
2018-06-03T14:40:29.158Z,25.90
2018-06-03T14:42:57.563Z,25.80
2018-06-03T14:45:26.019Z,25.90
2018-06-03T14:47:54.404Z,26.00
2018-06-03T14:50:22.846Z,26.00
2018-06-03T14:52:51.301Z,26.10
2018-06-03T14:55:19.760Z,26.10
2018-06-03T14:57:48.153Z,26.40
2018-06-03T15:00:16.526Z,26.40
2018-06-03T15:02:44.943Z,26.20
2018-06-03T15:05:13.397Z,26.20
2018-06-03T15:07:41.789Z,26.10
2018-06-03T15:10:10.237Z,26.00
2018-06-03T15:12:38.654Z,26.00
2018-06-03T15:15:07.094Z,26.00
2018-06-03T15:17:35.477Z,26.00
2018-06-03T15:20:04.013Z,26.10
2018-06-03T15:22:32.462Z,26.10
2018-06-03T15:25:00.895Z,26.00
2018-06-03T15:27:29.301Z,25.80
2018-06-03T15:29:57.719Z,25.80
2018-06-03T15:32:26.140Z,25.80
2018-06-03T15:34:54.561Z,25.80
2018-06-03T15:37:22.970Z,25.80
2018-06-03T15:39:51.398Z,25.80
2018-06-03T15:42:19.822Z,26.00
2018-06-03T15:44:48.280Z,26.10
2018-06-03T15:47:16.696Z,26.10
2018-06-03T15:49:45.150Z,26.00
2018-06-03T15:52:13.564Z,26.00
2018-06-03T15:54:42.016Z,26.00
2018-06-03T15:57:10.406Z,25.80
2018-06-03T15:59:38.849Z,25.70
2018-06-03T16:02:07.265Z,25.70
2018-06-03T16:04:36.497Z,25.80
2018-06-03T16:07:05.300Z,25.80
2018-06-03T16:12:01.917Z,25.90
2018-06-03T16:14:30.345Z,25.80
2018-06-03T16:16:58.745Z,25.70
2018-06-03T16:19:27.181Z,25.70
2018-06-03T16:21:55.633Z,25.70
2018-06-03T16:24:24.098Z,25.60
2018-06-03T16:26:52.573Z,25.60
2018-06-03T16:29:20.969Z,25.60
2018-06-03T16:31:49.409Z,25.60
2018-06-03T16:34:17.817Z,25.60
2018-06-03T16:36:46.244Z,25.60
2018-06-03T16:39:14.669Z,25.60
2018-06-03T16:41:43.122Z,25.40
2018-06-03T16:44:11.554Z,25.40
2018-06-03T16:46:40.002Z,25.20
2018-06-03T16:49:08.431Z,25.10
2018-06-03T16:51:36.873Z,25.00
2018-06-03T16:54:05.413Z,24.90
2018-06-03T16:56:33.853Z,24.90
2018-06-03T16:59:02.255Z,24.70
2018-06-03T17:01:30.698Z,24.50
2018-06-03T17:03:59.117Z,24.50
2018-06-03T17:06:27.561Z,24.50
2018-06-03T17:08:55.981Z,24.50
2018-06-03T17:11:24.399Z,24.50
2018-06-03T17:13:52.845Z,24.40
2018-06-03T17:16:21.229Z,24.40
2018-06-03T17:18:49.661Z,24.40
2018-06-03T17:21:18.180Z,24.40
2018-06-03T17:23:46.601Z,24.50
2018-06-03T17:26:15.041Z,24.50
2018-06-03T17:28:43.530Z,24.40
2018-06-03T17:31:11.977Z,24.40
2018-06-03T17:33:40.445Z,24.40
2018-06-03T17:36:08.862Z,24.40
2018-06-03T17:38:37.305Z,24.40
2018-06-03T17:41:05.831Z,24.40
2018-06-03T17:43:34.247Z,24.40
2018-06-03T17:46:02.684Z,24.50
2018-06-03T17:48:31.110Z,24.40
2018-06-03T17:50:59.514Z,24.40
2018-06-03T17:53:27.969Z,24.40
2018-06-03T17:55:56.374Z,24.40
2018-06-03T17:58:24.804Z,24.40
2018-06-03T18:00:53.205Z,24.30
2018-06-03T18:03:21.651Z,24.20
2018-06-03T18:05:50.037Z,24.30
2018-06-03T18:08:18.473Z,24.20
2018-06-03T18:10:46.882Z,24.20
2018-06-03T18:13:15.333Z,24.00
2018-06-03T18:15:43.740Z,23.90
2018-06-03T18:18:12.169Z,23.90
2018-06-03T18:20:40.575Z,23.90
2018-06-03T18:23:09.237Z,23.80
2018-06-03T18:25:37.710Z,23.60
2018-06-03T18:28:06.352Z,23.50
2018-06-03T18:30:34.772Z,23.40
2018-06-03T18:33:03.190Z,23.30
2018-06-03T18:35:31.574Z,23.20
2018-06-03T18:38:00.024Z,23.20
2018-06-03T18:40:28.434Z,23.10
2018-06-03T18:42:56.870Z,23.00
2018-06-03T18:45:25.265Z,22.90
2018-06-03T18:47:53.675Z,22.80
2018-06-03T18:50:22.154Z,22.70
2018-06-03T18:55:18.737Z,22.60
2018-06-03T18:57:47.158Z,22.50
2018-06-03T19:00:15.605Z,22.30
2018-06-03T19:02:44.017Z,22.20
2018-06-03T19:05:12.446Z,22.10
2018-06-03T19:07:40.862Z,21.90
2018-06-03T19:10:09.294Z,21.80
2018-06-03T19:12:37.771Z,21.70
2018-06-03T19:15:06.277Z,21.50
2018-06-03T19:17:34.694Z,21.50
2018-06-03T19:20:03.190Z,21.40
2018-06-03T19:22:31.589Z,21.40
2018-06-03T19:25:00.086Z,21.20
2018-06-03T19:27:28.499Z,21.20
2018-06-03T19:29:56.942Z,21.10
2018-06-03T19:32:25.349Z,21.10
2018-06-03T19:34:53.768Z,21.00
2018-06-03T19:37:22.193Z,20.90
2018-06-03T19:39:50.641Z,20.80
2018-06-03T19:42:19.070Z,20.70
2018-06-03T19:44:47.529Z,20.70
2018-06-03T19:47:15.922Z,20.60
2018-06-03T19:52:12.478Z,20.50
2018-06-03T19:54:40.907Z,20.40
2018-06-03T19:57:09.339Z,20.30
2018-06-03T19:59:37.732Z,20.20
2018-06-03T20:02:06.241Z,20.20
2018-06-03T20:04:34.623Z,20.20
2018-06-03T20:07:03.061Z,20.20
2018-06-03T20:09:31.457Z,20.10
2018-06-03T20:11:59.895Z,20.10
2018-06-03T20:14:28.317Z,20.00
2018-06-03T20:16:56.775Z,19.90
2018-06-03T20:19:25.202Z,19.90
2018-06-03T20:21:53.684Z,19.80
2018-06-03T20:24:22.110Z,19.70
2018-06-03T20:26:50.546Z,19.60
2018-06-03T20:31:47.069Z,19.60
2018-06-03T20:34:15.542Z,19.60
2018-06-03T20:36:43.937Z,19.50
2018-06-03T20:39:12.433Z,19.40
2018-06-03T20:41:40.880Z,19.40
2018-06-03T20:44:09.328Z,19.40
2018-06-03T20:46:37.722Z,19.30
2018-06-03T20:49:06.162Z,19.30
2018-06-03T20:51:34.592Z,19.30
2018-06-03T20:54:03.057Z,19.20
2018-06-03T20:56:31.464Z,19.20
2018-06-03T21:01:28.104Z,19.10
2018-06-03T21:03:56.526Z,19.00
2018-06-03T21:06:24.933Z,19.00
2018-06-03T21:08:53.360Z,19.00
2018-06-03T21:11:21.877Z,18.90
2018-06-03T21:13:50.346Z,18.90
2018-06-03T21:16:18.783Z,18.80
2018-06-03T21:18:47.210Z,18.80
2018-06-03T21:21:15.605Z,18.70
2018-06-03T21:23:44.046Z,18.60
2018-06-03T21:26:12.440Z,18.60
2018-06-03T21:28:40.880Z,18.60
2018-06-03T21:31:09.290Z,18.60
2018-06-03T21:33:37.733Z,18.60
2018-06-03T21:36:06.326Z,18.50
2018-06-03T21:38:34.835Z,18.50
2018-06-03T21:41:03.250Z,18.50
2018-06-03T21:43:31.661Z,18.40
2018-06-03T21:46:00.109Z,18.40
2018-06-03T21:48:28.524Z,18.40
2018-06-03T21:50:56.983Z,18.30
2018-06-03T21:53:25.404Z,18.20
2018-06-03T21:55:53.830Z,18.10
2018-06-03T21:58:22.223Z,18.00
2018-06-03T22:00:50.675Z,17.90
2018-06-03T22:03:19.149Z,17.90
2018-06-03T22:05:47.594Z,17.90
2018-06-03T22:08:15.985Z,17.80
2018-06-03T22:10:44.425Z,17.80
2018-06-03T22:13:12.850Z,17.80
2018-06-03T22:15:41.363Z,17.80
2018-06-03T22:18:09.824Z,17.90
2018-06-03T22:23:06.321Z,17.90
2018-06-03T22:25:34.758Z,17.80
2018-06-03T22:28:03.172Z,17.80
2018-06-03T22:30:31.592Z,17.70
2018-06-03T22:32:59.999Z,17.60
2018-06-03T22:35:28.445Z,17.60
2018-06-03T22:37:56.858Z,17.50
2018-06-03T22:40:25.281Z,17.50
2018-06-03T22:42:53.682Z,17.40
2018-06-03T22:45:22.134Z,17.40
2018-06-03T22:47:50.532Z,17.30
2018-06-03T22:50:18.980Z,17.10
2018-06-03T22:52:47.433Z,17.10
2018-06-03T22:55:15.897Z,17.10
2018-06-03T22:57:49.119Z,16.90
2018-06-03T23:00:32.929Z,16.90
2018-06-03T23:03:06.689Z,16.80
2018-06-03T23:05:35.282Z,16.80
2018-06-03T23:08:03.701Z,16.90
2018-06-03T23:10:32.157Z,16.90
2018-06-03T23:13:00.587Z,17.00
2018-06-03T23:15:29.000Z,17.00
2018-06-03T23:17:57.964Z,17.00
2018-06-03T23:20:26.393Z,16.90
2018-06-03T23:22:54.877Z,16.80
2018-06-03T23:25:23.307Z,16.80
2018-06-03T23:27:51.762Z,16.80
2018-06-03T23:32:48.353Z,16.50
2018-06-03T23:35:16.766Z,16.50
2018-06-03T23:37:45.213Z,16.50
2018-06-03T23:40:13.624Z,16.40
2018-06-03T23:42:42.128Z,16.30
2018-06-03T23:45:10.557Z,16.30
2018-06-03T23:47:39.047Z,16.20
2018-06-03T23:50:07.493Z,16.20
2018-06-03T23:52:35.937Z,16.20
2018-06-03T23:55:04.401Z,16.20
2018-06-03T23:57:32.820Z,16.20
